You are not logged in, Click here to log in
ICAO: ZSAM Country: 中國福建省廈門島東北端
Latitude: 24.5391 Longitude: 118.134
Total Arrivals: 48 Total Departures: 42
Latest Arrival: BR9126 (RCTP-ZSAM)James. Tsai Latest Departure: CI129 (ZSAM-RCTP)James. Tsai
Scenery:
METAR : ZSAM 241100Z 13002MPS 080V180 9999 SCT030 OVC050 25/21 Q1012 NOSIG

廈門高崎國際機場XMN